Time;durP1;ratioP1;P1;durP2;ratioP2;P2;SDS_P1;SDS_P2;PMS_P1;PMS_P2;Temp;Humidity;BMP_temperature;BMP_pressure;BME280_temperature;BME280_humidity;BME280_pressure;Samples;Min_cycle;Max_cycle;Signal;HPM_P1;HPM_P2
2021/05/09 00:00:54;;;;;;;0.57;0.50;;;;;;;12.37;51.32;99789.34;5013600;28;20645;-71
2021/05/09 00:03:20;;;;;;;0.40;0.30;;;;;;;12.39;52.04;99793.34;5013248;28;20722;-71
2021/05/09 00:05:45;;;;;;;0.10;0.10;;;;;;;12.49;51.11;99795.66;5013378;28;20585;-73
2021/05/09 00:08:10;;;;;;;0.20;0.20;;;;;;;12.47;51.90;99786.97;5013144;28;20636;-71
2021/05/09 00:10:36;;;;;;;0.57;0.57;;;;;;;12.49;51.15;99787.44;5011968;28;20208;-70
2021/05/09 00:13:01;;;;;;;0.10;0.10;;;;;;;12.52;51.03;99781.28;5012825;28;20204;-71
2021/05/09 00:15:26;;;;;;;0.30;0.30;;;;;;;12.48;51.00;99774.88;5013294;28;20434;-71
2021/05/09 00:17:52;;;;;;;0.47;0.47;;;;;;;12.51;50.89;99778.88;5012990;28;20297;-71
2021/05/09 00:20:18;;;;;;;0.30;0.20;;;;;;;12.50;51.67;99777.28;5012877;28;20300;-72
2021/05/09 00:22:44;;;;;;;0.30;0.30;;;;;;;12.51;51.63;99774.19;5012807;28;20193;-71
2021/05/09 00:25:10;;;;;;;0.10;0.10;;;;;;;12.47;52.00;99773.28;5012763;28;20246;-71
2021/05/09 00:27:35;;;;;;;0.37;0.33;;;;;;;12.52;51.39;99780.47;5012759;28;20173;-71
2021/05/09 00:30:01;;;;;;;0.20;0.20;;;;;;;12.49;51.47;99781.97;4995293;28;20196;-72
2021/05/09 00:32:26;;;;;;;0.30;0.30;;;;;;;12.50;51.33;99775.34;5012558;28;20212;-71
2021/05/09 00:34:51;;;;;;;0.23;0.23;;;;;;;12.52;51.49;99780.47;5012521;28;20263;-71
2021/05/09 00:37:17;;;;;;;0.97;0.53;;;;;;;12.52;51.44;99781.28;5012654;28;20513;-73
2021/05/09 00:39:44;;;;;;;0.30;0.30;;;;;;;12.48;51.63;99785.84;5012582;28;20285;-70
2021/05/09 00:42:09;;;;;;;0.50;0.50;;;;;;;12.50;51.39;99786.28;5012345;28;20173;-70
2021/05/09 00:44:35;;;;;;;0.40;0.40;;;;;;;12.55;51.73;99782.53;5012487;28;20187;-72
2021/05/09 00:47:08;;;;;;;0.20;0.20;;;;;;;12.55;51.61;99773.50;5012413;28;20519;-73
2021/05/09 00:49:35;;;;;;;0.40;0.20;;;;;;;12.54;52.03;99782.88;5012289;28;20204;-71
2021/05/09 00:52:01;;;;;;;0.53;0.43;;;;;;;12.55;51.96;99781.72;5012240;28;20204;-73
2021/05/09 00:54:28;;;;;;;0.53;0.50;;;;;;;12.51;52.10;99779.66;5012010;28;20639;-71
2021/05/09 00:56:55;;;;;;;0.33;0.33;;;;;;;12.50;51.74;99778.06;5012343;28;20266;-72
2021/05/09 00:59:22;;;;;;;0.20;0.20;;;;;;;12.43;52.86;99785.25;5012048;28;20191;-72
2021/05/09 01:01:48;;;;;;;0.30;0.30;;;;;;;12.44;52.54;99784.09;5012038;28;20207;-70
2021/05/09 01:04:16;;;;;;;0.43;0.43;;;;;;;12.50;52.89;99789.03;4994307;28;20227;-71
2021/05/09 01:06:42;;;;;;;0.00;0.00;;;;;;;12.61;51.67;99772.16;5011924;28;20185;-72
2021/05/09 01:09:08;;;;;;;0.33;0.33;;;;;;;12.65;52.21;99781.28;5011907;28;20177;-72
2021/05/09 01:11:33;;;;;;;0.20;0.20;;;;;;;12.64;52.40;99782.44;4994518;28;20387;-71
2021/05/09 01:13:58;;;;;;;3.77;0.83;;;;;;;12.64;52.60;99779.69;5011902;28;20203;-71
2021/05/09 01:16:24;;;;;;;0.57;0.50;;;;;;;12.64;52.74;99776.94;4994181;28;20184;-71
2021/05/09 01:18:49;;;;;;;0.50;0.50;;;;;;;12.58;53.32;99778.28;5011805;28;20176;-74
2021/05/09 01:21:14;;;;;;;0.30;0.30;;;;;;;12.63;52.37;99770.66;5011222;28;20227;-73
2021/05/09 01:23:40;;;;;;;0.00;0.00;;;;;;;12.65;51.92;99776.59;5011597;28;20644;-72
2021/05/09 01:26:05;;;;;;;0.83;0.10;;;;;;;12.66;52.37;99767.25;5011864;28;20665;-74
2021/05/09 01:28:30;;;;;;;0.43;0.30;;;;;;;12.65;52.51;99771.13;5011614;28;20583;-71
2021/05/09 01:30:56;;;;;;;0.67;0.63;;;;;;;12.54;52.06;99767.22;4994080;28;20235;-71
2021/05/09 01:33:21;;;;;;;0.27;0.27;;;;;;;12.57;53.02;99760.25;4993840;28;20214;-72
2021/05/09 01:35:46;;;;;;;0.30;0.30;;;;;;;12.54;52.74;99753.53;5011663;28;20177;-71
2021/05/09 01:38:12;;;;;;;0.40;0.40;;;;;;;12.49;52.98;99760.03;5011573;28;20180;-71
2021/05/09 01:40:37;;;;;;;4.67;0.40;;;;;;;12.40;53.36;99766.75;4993784;28;20184;-71
2021/05/09 01:43:03;;;;;;;0.33;0.33;;;;;;;12.39;53.51;99759.66;5011426;28;20177;-73
2021/05/09 01:45:28;;;;;;;0.27;0.27;;;;;;;12.31;53.92;99769.59;4993778;28;20222;-71
2021/05/09 01:47:54;;;;;;;0.17;0.17;;;;;;;12.30;53.53;99754.31;5011431;28;20173;-71
2021/05/09 01:50:19;;;;;;;0.57;0.57;;;;;;;12.25;53.91;99760.00;5010023;28;20216;-72
2021/05/09 01:52:45;;;;;;;0.20;0.20;;;;;;;12.18;54.03;99755.09;5011127;28;20291;-71
2021/05/09 01:55:22;;;;;;;0.40;0.40;;;;;;;12.15;54.83;99760.41;5011463;28;20180;-75
2021/05/09 01:57:48;;;;;;;0.33;0.33;;;;;;;12.13;54.43;99765.44;5011521;28;20217;-73
2021/05/09 02:00:17;;;;;;;0.50;0.50;;;;;;;12.16;54.89;99760.09;5011239;28;20231;-73
2021/05/09 02:02:43;;;;;;;0.33;0.30;;;;;;;12.16;54.51;99767.50;5011341;28;20172;-72
2021/05/09 02:05:10;;;;;;;1.43;0.80;;;;;;;12.11;54.72;99760.28;5011177;28;20889;-71
2021/05/09 02:07:37;;;;;;;0.50;0.50;;;;;;;12.17;55.13;99766.38;5011197;28;20307;-73
2021/05/09 02:10:07;;;;;;;0.43;0.43;;;;;;;12.18;55.40;99767.97;5011186;28;20536;-74
2021/05/09 02:12:32;;;;;;;0.40;0.40;;;;;;;12.17;55.61;99767.19;5010933;28;20250;-71
2021/05/09 02:14:58;;;;;;;0.20;0.20;;;;;;;12.23;54.99;99759.53;5009884;28;20629;-71
2021/05/09 02:17:23;;;;;;;0.30;0.30;;;;;;;12.21;55.27;99754.41;5010986;28;20176;-71
2021/05/09 02:19:49;;;;;;;0.20;0.20;;;;;;;12.17;55.81;99752.69;5011018;28;20226;-72
2021/05/09 02:22:14;;;;;;;0.37;0.37;;;;;;;12.24;55.41;99752.91;5010982;28;20203;-71
2021/05/09 02:24:42;;;;;;;0.83;0.50;;;;;;;12.24;55.71;99752.13;5010936;28;20173;-72
2021/05/09 02:27:07;;;;;;;0.27;0.27;;;;;;;12.15;56.25;99752.19;5011178;28;20177;-73
2021/05/09 02:29:33;;;;;;;0.10;0.10;;;;;;;12.16;56.39;99753.81;5010933;28;20183;-70
2021/05/09 02:31:58;;;;;;;0.27;0.17;;;;;;;12.17;56.08;99755.41;5010923;28;20212;-71
2021/05/09 02:34:24;;;;;;;0.53;0.50;;;;;;;12.32;55.37;99743.81;5013558;28;20644;-71
2021/05/09 02:36:49;;;;;;;0.20;0.20;;;;;;;12.39;54.89;99755.00;5013669;28;20640;-74
2021/05/09 02:39:15;;;;;;;0.70;0.70;;;;;;;12.34;55.31;99741.53;5014977;28;20199;-72
2021/05/09 02:41:40;;;;;;;0.60;0.60;;;;;;;12.32;55.90;99748.50;5014917;28;20185;-72
2021/05/09 02:44:06;;;;;;;0.10;0.10;;;;;;;12.32;55.91;99754.78;5014645;28;20192;-71
2021/05/09 02:46:32;;;;;;;0.40;0.33;;;;;;;12.32;55.77;99743.81;5014760;28;20177;-75
2021/05/09 02:48:58;;;;;;;0.40;0.40;;;;;;;12.34;55.45;99747.00;5014634;28;20676;-72
2021/05/09 02:51:23;;;;;;;0.40;0.40;;;;;;;12.39;55.28;99752.25;5014675;28;20207;-72
2021/05/09 02:53:48;;;;;;;0.47;0.47;;;;;;;12.42;55.66;99743.34;5014211;28;20330;-71
2021/05/09 02:56:14;;;;;;;0.40;0.40;;;;;;;12.36;55.91;99757.63;5014648;28;20231;-72
2021/05/09 02:58:39;;;;;;;0.30;0.30;;;;;;;12.33;56.06;99750.09;5014317;28;20645;-71
2021/05/09 03:01:04;;;;;;;0.30;0.30;;;;;;;12.26;56.61;99753.38;5014405;28;20181;-73
2021/05/09 03:03:30;;;;;;;0.20;0.20;;;;;;;12.21;56.59;99759.88;5014403;28;20181;-72
2021/05/09 03:05:55;;;;;;;0.40;0.30;;;;;;;12.25;56.56;99753.72;5014508;28;20208;-73
2021/05/09 03:08:21;;;;;;;0.70;0.53;;;;;;;12.23;56.27;99761.47;5014478;28;20176;-73
2021/05/09 03:10:47;;;;;;;0.30;0.30;;;;;;;12.16;56.92;99751.88;5014582;28;20671;-75
2021/05/09 03:13:12;;;;;;;0.87;0.33;;;;;;;12.05;57.23;99753.44;5014084;28;20251;-74
2021/05/09 03:15:38;;;;;;;0.20;0.20;;;;;;;12.07;56.61;99750.38;5014202;28;20172;-72
2021/05/09 03:18:03;;;;;;;0.50;0.30;;;;;;;12.07;57.15;99750.38;5014275;28;20172;-71
2021/05/09 03:20:29;;;;;;;0.27;0.27;;;;;;;12.05;56.39;99749.91;5014027;28;20691;-73
2021/05/09 03:22:54;;;;;;;0.47;0.20;;;;;;;11.99;57.15;99751.25;5014039;28;20184;-72
2021/05/09 03:25:19;;;;;;;0.50;0.50;;;;;;;11.99;57.28;99745.75;5014007;28;20676;-73
2021/05/09 03:27:47;;;;;;;0.20;0.20;;;;;;;11.98;58.01;99749.66;5013982;28;20211;-74
2021/05/09 03:30:14;;;;;;;0.20;0.20;;;;;;;11.97;58.02;99751.59;5013914;28;20173;-72
2021/05/09 03:32:39;;;;;;;1.17;0.60;;;;;;;11.97;57.42;99737.91;4996129;28;20621;-74
2021/05/09 03:35:07;;;;;;;0.60;0.57;;;;;;;11.99;57.99;99751.25;5013728;28;20219;-71
2021/05/09 03:37:33;;;;;;;0.30;0.30;;;;;;;11.97;57.84;99743.38;5013862;28;20175;-74
2021/05/09 03:39:58;;;;;;;0.47;0.47;;;;;;;11.96;57.81;99738.22;5013743;28;20181;-73
2021/05/09 03:42:24;;;;;;;0.40;0.33;;;;;;;11.98;58.24;99741.44;5013538;28;20172;-73
2021/05/09 03:44:49;;;;;;;0.37;0.23;;;;;;;12.01;58.10;99738.03;5013826;28;20495;-72
2021/05/09 03:47:14;;;;;;;0.33;0.30;;;;;;;12.07;57.59;99737.47;5013599;28;20234;-72
2021/05/09 03:49:40;;;;;;;0.40;0.33;;;;;;;12.01;58.07;99732.56;5013527;28;20177;-73
2021/05/09 03:52:06;;;;;;;0.30;0.30;;;;;;;12.01;58.47;99736.09;5013303;28;20200;-73
2021/05/09 03:54:31;;;;;;;1.80;0.40;;;;;;;12.01;58.68;99746.25;5013157;28;20508;-74
2021/05/09 03:56:57;;;;;;;0.50;0.50;;;;;;;12.05;58.33;99728.00;5013401;28;20633;-73
2021/05/09 03:59:22;;;;;;;0.40;0.30;;;;;;;12.16;57.75;99734.66;5013144;28;20218;-73
2021/05/09 04:01:47;;;;;;;1.13;0.60;;;;;;;12.17;58.19;99736.25;5013226;28;20192;-73
2021/05/09 04:04:13;;;;;;;0.40;0.40;;;;;;;12.25;58.48;99731.81;4995489;28;20191;-72
2021/05/09 04:06:38;;;;;;;0.60;0.30;;;;;;;12.26;57.58;99731.47;5013377;28;20542;-72
2021/05/09 04:09:05;;;;;;;0.20;0.20;;;;;;;12.27;57.67;99724.84;5013204;28;20565;-72
2021/05/09 04:11:31;;;;;;;0.40;0.40;;;;;;;12.24;57.61;99733.75;5013122;28;20197;-72
2021/05/09 04:13:56;;;;;;;0.30;0.30;;;;;;;12.15;57.82;99722.91;4995491;28;20180;-74
2021/05/09 04:16:22;;;;;;;0.57;0.57;;;;;;;12.27;57.97;99727.56;5013030;28;20208;-74
2021/05/09 04:18:47;;;;;;;0.27;0.27;;;;;;;12.20;58.00;99730.09;5013427;28;20226;-75
2021/05/09 04:21:12;;;;;;;0.50;0.50;;;;;;;12.26;58.41;99730.66;5013152;28;20263;-72
2021/05/09 04:23:38;;;;;;;0.50;0.30;;;;;;;12.31;58.00;99725.78;5012867;28;20181;-73
2021/05/09 04:26:03;;;;;;;0.20;0.20;;;;;;;12.31;57.84;99725.78;5012991;28;20173;-74
2021/05/09 04:28:28;;;;;;;0.40;0.40;;;;;;;12.39;57.55;99726.81;5012759;28;20205;-75
2021/05/09 04:30:54;;;;;;;0.20;0.20;;;;;;;12.39;58.01;99727.59;5012690;28;20202;-72
2021/05/09 04:33:25;;;;;;;0.30;0.30;;;;;;;12.34;57.34;99722.34;5012653;28;20226;-75
2021/05/09 04:35:51;;;;;;;0.50;0.43;;;;;;;12.35;57.37;99723.94;5012800;28;20161;-71
2021/05/09 04:38:17;;;;;;;0.40;0.40;;;;;;;12.43;57.38;99725.75;4995184;28;20180;-75
2021/05/09 04:40:42;;;;;;;0.53;0.53;;;;;;;12.35;57.50;99721.22;5012652;28;20179;-73
2021/05/09 04:43:10;;;;;;;0.20;0.20;;;;;;;12.34;58.05;99722.34;5012432;28;20544;-74
2021/05/09 04:45:36;;;;;;;0.50;0.50;;;;;;;12.30;57.68;99721.44;5012607;28;20174;-71
2021/05/09 04:48:05;;;;;;;0.30;0.30;;;;;;;12.27;58.10;99724.03;5012740;28;20699;-73
2021/05/09 04:50:32;;;;;;;0.30;0.30;;;;;;;12.25;58.42;99713.44;5012453;28;20182;-73
2021/05/09 04:52:57;;;;;;;0.40;0.40;;;;;;;12.31;57.96;99725.78;5012359;28;20287;-73
2021/05/09 04:55:23;;;;;;;0.40;0.40;;;;;;;12.28;58.85;99726.44;5012011;28;20637;-75
2021/05/09 04:57:49;;;;;;;0.30;0.30;;;;;;;12.32;58.41;99721.91;5011906;28;20185;-74
2021/05/09 05:00:15;;;;;;;0.40;0.40;;;;;;;12.36;58.02;99716.53;5012574;28;20169;-72
2021/05/09 05:02:45;;;;;;;0.30;0.30;;;;;;;12.36;58.22;99725.53;5012089;28;20173;-74
2021/05/09 05:05:11;;;;;;;0.40;0.33;;;;;;;12.41;57.99;99730.00;5012237;28;20168;-74
2021/05/09 05:07:37;;;;;;;0.30;0.30;;;;;;;12.44;57.77;99727.41;5012387;28;20176;-72
2021/05/09 05:10:04;;;;;;;0.40;0.40;;;;;;;12.42;57.97;99729.66;5012094;28;20169;-74
2021/05/09 05:12:29;;;;;;;0.53;0.50;;;;;;;12.47;57.96;99729.44;5011892;28;20204;-74
2021/05/09 05:14:55;;;;;;;0.20;0.20;;;;;;;12.57;57.68;99728.19;5012094;28;20392;-71
2021/05/09 05:17:20;;;;;;;0.40;0.37;;;;;;;12.64;57.19;99720.19;5012022;28;20181;-72
2021/05/09 05:19:46;;;;;;;0.87;0.17;;;;;;;12.70;57.41;99735.25;5011914;28;20573;-74
2021/05/09 05:22:11;;;;;;;0.27;0.27;;;;;;;12.77;57.31;99727.28;5010691;28;20188;-72
2021/05/09 05:24:39;;;;;;;0.27;0.27;;;;;;;12.80;57.29;99723.84;5010939;28;20206;-71
2021/05/09 05:27:05;;;;;;;0.57;0.57;;;;;;;12.91;56.56;99720.66;5010997;28;20172;-72
2021/05/09 05:29:30;;;;;;;0.20;0.20;;;;;;;12.91;56.77;99715.97;5012660;28;20219;-71
2021/05/09 05:31:55;;;;;;;0.40;0.40;;;;;;;13.00;56.66;99713.06;5011814;28;20780;-73
2021/05/09 05:34:21;;;;;;;0.40;0.30;;;;;;;13.07;55.89;99718.78;5012009;28;20170;-71
2021/05/09 05:36:46;;;;;;;0.23;0.23;;;;;;;13.13;56.19;99716.59;5011795;28;20177;-75
2021/05/09 05:39:13;;;;;;;0.40;0.40;;;;;;;13.30;55.88;99711.66;5011745;28;20165;-73
2021/05/09 05:41:39;;;;;;;0.30;0.30;;;;;;;13.26;55.59;99719.00;5010225;28;20186;-74
2021/05/09 05:44:05;;;;;;;0.40;0.40;;;;;;;13.35;55.50;99714.19;5012771;28;20292;-71
2021/05/09 05:46:31;;;;;;;0.40;0.40;;;;;;;13.36;55.12;99720.47;5011366;28;20541;-73
2021/05/09 05:48:57;;;;;;;0.50;0.50;;;;;;;13.36;55.37;99704.78;5011633;28;20180;-75
2021/05/09 05:51:22;;;;;;;0.80;0.30;;;;;;;13.38;55.54;99718.16;5012050;28;20204;-70
2021/05/09 05:53:48;;;;;;;0.40;0.40;;;;;;;13.52;55.60;99723.28;5015140;28;20200;-71
2021/05/09 05:56:14;;;;;;;0.43;0.43;;;;;;;13.66;54.82;99718.19;5021399;28;20251;-71
2021/05/09 05:58:39;;;;;;;0.30;0.30;;;;;;;13.69;54.28;99723.75;5012164;28;20659;-71
2021/05/09 06:01:05;;;;;;;0.27;0.20;;;;;;;13.84;55.30;99719.47;5011783;28;20173;-71
2021/05/09 06:03:30;;;;;;;0.40;0.40;;;;;;;13.92;54.29;99729.50;5011528;28;20180;-71
2021/05/09 06:05:57;;;;;;;0.47;0.33;;;;;;;13.97;54.35;99728.44;5009958;28;20262;-71
2021/05/09 06:08:23;;;;;;;0.27;0.27;;;;;;;14.02;54.61;99717.19;5009111;28;20168;-71
2021/05/09 06:10:49;;;;;;;3.40;0.37;;;;;;;14.37;54.86;99724.78;5011311;28;20287;-71
2021/05/09 06:13:14;;;;;;;1.50;0.30;;;;;;;14.36;54.05;99721.22;5011045;28;20290;-71
2021/05/09 06:15:40;;;;;;;0.37;0.33;;;;;;;14.39;54.42;99722.47;5012003;28;20307;-71
2021/05/09 06:18:06;;;;;;;0.47;0.37;;;;;;;14.45;53.41;99724.59;5011267;28;20168;-72
2021/05/09 06:20:33;;;;;;;0.20;0.20;;;;;;;14.41;53.77;99731.16;5011120;28;20180;-72
2021/05/09 06:22:59;;;;;;;0.30;0.30;;;;;;;14.54;54.00;99724.44;5010924;28;20530;-73
2021/05/09 06:25:26;;;;;;;0.40;0.40;;;;;;;14.81;54.34;99731.78;5011073;28;20176;-71
2021/05/09 06:27:51;;;;;;;0.20;0.20;;;;;;;14.81;53.21;99725.47;5009605;28;20173;-74
2021/05/09 06:30:18;;;;;;;0.50;0.50;;;;;;;14.81;53.11;99728.22;4992730;28;20252;-71
2021/05/09 06:32:43;;;;;;;0.30;0.30;;;;;;;14.93;53.33;99724.56;5010620;28;20505;-72
2021/05/09 06:35:08;;;;;;;0.30;0.30;;;;;;;14.97;52.94;99725.44;5010750;28;20196;-71
2021/05/09 06:37:35;;;;;;;0.20;0.20;;;;;;;15.08;53.06;99735.53;5011140;28;20184;-71
2021/05/09 06:40:01;;;;;;;0.30;0.30;;;;;;;15.24;53.27;99743.75;5010580;28;20207;-72
2021/05/09 06:42:27;;;;;;;0.30;0.30;;;;;;;15.35;52.53;99744.00;4992930;28;20172;-71
2021/05/09 06:44:58;;;;;;;0.40;0.33;;;;;;;15.39;52.31;99739.34;5010880;28;20179;-75
2021/05/09 06:47:26;;;;;;;0.30;0.30;;;;;;;15.55;53.11;99740.09;5010835;28;20605;-71
2021/05/09 06:49:51;;;;;;;0.20;0.20;;;;;;;15.61;52.70;99737.84;5010604;28;20180;-71
2021/05/09 06:52:16;;;;;;;0.10;0.10;;;;;;;15.82;52.81;99738.31;5009230;28;20258;-74
2021/05/09 06:54:42;;;;;;;0.33;0.33;;;;;;;15.84;52.55;99741.47;5010431;28;20259;-71
2021/05/09 06:57:09;;;;;;;2.93;0.30;;;;;;;16.00;53.83;99744.94;5010627;28;20256;-71
2021/05/09 06:59:34;;;;;;;0.30;0.30;;;;;;;16.05;52.22;99743.84;5009105;28;20740;-72
2021/05/09 07:01:59;;;;;;;0.30;0.30;;;;;;;15.99;52.08;99748.88;5010595;28;20264;-71
2021/05/09 07:04:25;;;;;;;0.40;0.40;;;;;;;16.07;51.74;99747.06;5010579;28;20263;-71
2021/05/09 07:06:50;;;;;;;0.20;0.20;;;;;;;16.12;52.24;99737.69;5010920;28;20182;-71
2021/05/09 07:09:19;;;;;;;0.30;0.30;;;;;;;16.18;51.84;99736.19;5010626;28;20267;-72
2021/05/09 07:11:44;;;;;;;0.37;0.37;;;;;;;16.35;52.58;99728.28;5010625;28;20255;-71
2021/05/09 07:14:09;;;;;;;0.47;0.30;;;;;;;16.57;51.69;99740.44;5010612;28;20604;-71
2021/05/09 07:16:37;;;;;;;0.30;0.30;;;;;;;16.76;52.06;99736.81;5010974;28;20263;-71
2021/05/09 07:19:05;;;;;;;0.10;0.10;;;;;;;16.89;51.21;99731.91;5009810;28;20172;-73
2021/05/09 07:21:35;;;;;;;0.23;0.23;;;;;;;16.86;50.75;99740.94;5014298;28;20169;-72
2021/05/09 07:24:01;;;;;;;0.30;0.30;;;;;;;16.95;51.85;99738.72;5014243;28;20169;-71
2021/05/09 07:26:26;;;;;;;0.50;0.50;;;;;;;17.05;50.94;99740.03;5014007;28;20184;-72
2021/05/09 07:28:52;;;;;;;0.33;0.33;;;;;;;17.19;52.09;99738.25;5013883;28;20210;-72
2021/05/09 07:31:17;;;;;;;0.20;0.20;;;;;;;17.37;52.39;99733.00;5014519;28;20264;-73
2021/05/09 07:33:42;;;;;;;0.30;0.30;;;;;;;17.35;50.87;99732.56;5027459;28;20176;-71
2021/05/09 07:36:08;;;;;;;0.30;0.30;;;;;;;17.45;51.65;99734.66;5015772;28;20183;-72
2021/05/09 07:38:34;;;;;;;0.30;0.20;;;;;;;17.42;50.70;99727.13;5033492;28;20188;-71
2021/05/09 07:41:00;;;;;;;0.30;0.30;;;;;;;17.57;52.27;99730.09;5033351;28;20180;-73
2021/05/09 07:43:27;;;;;;;0.40;0.40;;;;;;;17.63;51.56;99723.03;5033097;28;20211;-72
2021/05/09 07:45:53;;;;;;;0.60;0.50;;;;;;;17.68;51.27;99726.31;5033342;28;20176;-72
2021/05/09 07:48:18;;;;;;;0.27;0.27;;;;;;;17.76;51.43;99725.22;5033324;28;20195;-74
2021/05/09 07:50:44;;;;;;;0.40;0.40;;;;;;;17.76;50.99;99724.41;5033323;28;20183;-73
2021/05/09 07:53:10;;;;;;;0.20;0.20;;;;;;;17.96;51.89;99719.53;5033384;28;20210;-71
2021/05/09 07:55:36;;;;;;;0.47;0.40;;;;;;;18.20;51.68;99712.63;5033103;28;20307;-71
2021/05/09 07:58:13;;;;;;;0.10;0.10;;;;;;;18.36;51.79;99708.44;5032888;28;20274;-74
2021/05/09 08:00:38;;;;;;;0.20;0.20;;;;;;;18.50;50.74;99709.75;5015482;28;20182;-72
2021/05/09 08:03:04;;;;;;;0.20;0.20;;;;;;;18.55;50.19;99707.44;5032979;28;20391;-71
2021/05/09 08:05:29;;;;;;;0.17;0.17;;;;;;;18.60;49.52;99711.81;5033050;28;20206;-74
2021/05/09 08:07:56;;;;;;;0.20;0.20;;;;;;;18.51;49.98;99712.13;5015008;28;20631;-71
2021/05/09 08:10:26;;;;;;;0.20;0.20;;;;;;;18.66;49.24;99713.06;5032703;28;20723;-74
2021/05/09 08:12:52;;;;;;;0.23;0.23;;;;;;;18.69;49.86;99713.09;5032664;28;20681;-74
2021/05/09 08:15:19;;;;;;;0.30;0.30;;;;;;;18.80;50.17;99707.63;5014955;28;20195;-74
2021/05/09 08:17:47;;;;;;;0.10;0.10;;;;;;;18.92;48.45;99710.09;5032861;28;20636;-74
2021/05/09 08:20:14;;;;;;;0.73;0.40;;;;;;;19.04;48.03;99703.44;5032664;28;20176;-74
2021/05/09 08:22:40;;;;;;;0.40;0.40;;;;;;;19.12;48.60;99701.53;5032463;28;20184;-73
2021/05/09 08:25:07;;;;;;;0.10;0.10;;;;;;;19.16;49.49;99708.66;5032643;28;20287;-74
2021/05/09 08:27:33;;;;;;;2.10;0.80;;;;;;;19.30;47.79;99692.13;5014730;28;20190;-74
2021/05/09 08:29:59;;;;;;;0.57;0.47;;;;;;;19.42;48.37;99690.97;5014598;28;20203;-72
2021/05/09 08:32:26;;;;;;;0.43;0.17;;;;;;;19.53;48.44;99685.50;5031192;28;20615;-74
2021/05/09 08:34:56;;;;;;;0.40;0.40;;;;;;;19.67;47.62;99681.97;5033012;28;20259;-72
2021/05/09 08:37:22;;;;;;;0.30;0.30;;;;;;;19.84;47.28;99672.94;5033017;28;20208;-73
2021/05/09 08:39:47;;;;;;;0.40;0.40;;;;;;;20.01;47.79;99674.94;5032423;28;20192;-73
2021/05/09 08:42:16;;;;;;;0.90;0.80;;;;;;;20.05;47.65;99677.72;5032231;28;20252;-73
2021/05/09 08:44:49;;;;;;;5.37;0.37;;;;;;;19.98;46.74;99678.50;5014641;28;20210;-73
2021/05/09 08:47:15;;;;;;;0.30;0.30;;;;;;;19.97;47.19;99674.16;5032353;28;20178;-74
2021/05/09 08:49:41;;;;;;;0.27;0.27;;;;;;;20.06;47.70;99673.75;5032159;28;20182;-76
2021/05/09 08:52:09;;;;;;;0.30;0.30;;;;;;;20.15;47.80;99665.84;5004030;28;20213;-75
2021/05/09 08:54:34;;;;;;;0.40;0.40;;;;;;;20.36;46.52;99671.41;5012076;28;20192;-75
2021/05/09 08:57:03;;;;;;;0.43;0.20;;;;;;;20.46;46.75;99667.88;5012352;28;20621;-74
2021/05/09 08:59:28;;;;;;;0.30;0.30;;;;;;;20.58;45.98;99661.13;5012211;28;20245;-75
2021/05/09 09:01:55;;;;;;;0.10;0.10;;;;;;;20.72;46.82;99655.56;5012470;28;20173;-75
2021/05/09 09:04:20;;;;;;;0.40;0.40;;;;;;;20.70;46.57;99654.38;5012151;28;20191;-75
2021/05/09 09:06:48;;;;;;;0.37;0.37;;;;;;;20.88;46.71;99649.56;5012134;28;20176;-75
2021/05/09 09:09:21;;;;;;;0.17;0.17;;;;;;;20.99;45.99;99646.78;5011952;28;20178;-75
2021/05/09 09:11:56;;;;;;;0.40;0.40;;;;;;;21.00;45.51;99651.94;5012355;28;20193;-74
2021/05/09 09:14:26;;;;;;;0.30;0.30;;;;;;;21.04;45.02;99640.78;5012052;28;20536;-75
2021/05/09 09:17:17;;;;;;;0.30;0.30;;;;;;;21.07;44.74;99637.22;5012285;28;20213;-75
2021/05/09 09:20:02;;;;;;;0.20;0.20;;;;;;;21.20;45.25;99632.00;5012306;28;20165;-74
2021/05/09 09:22:47;;;;;;;0.20;0.20;;;;;;;21.20;45.17;99632.78;4993937;28;20195;-74
2021/05/09 09:25:13;;;;;;;0.50;0.40;;;;;;;21.20;45.49;99632.00;5011666;28;20190;-75
2021/05/09 09:27:42;;;;;;;0.30;0.30;;;;;;;21.50;44.06;99634.28;5011779;28;20181;-75
2021/05/09 09:30:08;;;;;;;0.70;0.70;;;;;;;21.61;44.05;99633.03;4994130;28;20178;-75
2021/05/09 09:32:34;;;;;;;0.20;0.20;;;;;;;21.70;43.55;99629.81;5011588;28;20251;-73
2021/05/09 09:34:59;;;;;;;0.43;0.20;;;;;;;21.64;44.71;99617.53;5011572;28;20270;-72
2021/05/09 09:37:32;;;;;;;0.37;0.37;;;;;;;21.61;42.96;99621.13;5011651;28;20174;-74
2021/05/09 09:40:02;;;;;;;1.03;0.50;;;;;;;21.73;44.43;99614.31;5011520;28;20164;-73
2021/05/09 09:42:35;;;;;;;0.50;0.50;;;;;;;21.89;42.96;99614.59;5011215;28;20626;-74
2021/05/09 09:45:20;;;;;;;0.20;0.20;;;;;;;21.95;42.98;99604.59;5011527;28;20195;-74
2021/05/09 09:48:02;;;;;;;0.50;0.50;;;;;;;22.02;43.43;99599.00;5011314;28;20183;-74
2021/05/09 09:50:40;;;;;;;0.30;0.30;;;;;;;22.16;42.88;99595.34;5011461;28;20176;-72
2021/05/09 09:53:31;;;;;;;0.40;0.40;;;;;;;22.36;43.67;99596.34;5011117;28;20204;-74
2021/05/09 09:56:20;;;;;;;9.93;0.47;;;;;;;22.46;41.62;99581.53;5011287;28;20177;-73
2021/05/09 09:58:45;;;;;;;0.30;0.30;;;;;;;22.54;43.53;99587.81;5011188;28;20192;-74
2021/05/09 10:01:13;;;;;;;0.30;0.30;;;;;;;22.71;42.68;99581.28;5011263;28;20231;-75
2021/05/09 10:03:38;;;;;;;0.47;0.47;;;;;;;22.92;42.00;99596.19;5010993;28;20432;-74
2021/05/09 10:06:04;;;;;;;6.33;0.63;;;;;;;22.97;42.31;99576.22;5011126;28;20447;-74
2021/05/09 10:08:32;;;;;;;0.40;0.40;;;;;;;23.18;40.53;99578.75;5011131;28;20516;-74
2021/05/09 10:11:00;;;;;;;0.30;0.30;;;;;;;23.06;39.96;99573.72;5011150;28;20746;-74
2021/05/09 10:13:26;;;;;;;0.20;0.20;;;;;;;22.93;40.26;99578.25;5010819;28;20690;-73
2021/05/09 10:15:57;;;;;;;0.37;0.37;;;;;;;23.00;41.08;99570.63;5011183;28;20173;-73
2021/05/09 10:18:25;;;;;;;0.50;0.50;;;;;;;23.18;43.45;99567.59;5011342;28;20481;-74
2021/05/09 10:20:51;;;;;;;0.40;0.40;;;;;;;23.35;41.06;99569.34;5011174;28;20188;-73
2021/05/09 10:23:20;;;;;;;0.30;0.30;;;;;;;23.41;40.05;99561.31;5011386;28;20183;-73
2021/05/09 10:25:54;;;;;;;0.17;0.17;;;;;;;23.49;40.32;99564.78;5011264;28;20200;-72
2021/05/09 10:28:40;;;;;;;0.40;0.30;;;;;;;23.63;40.84;99554.25;5011236;28;20182;-72
2021/05/09 10:31:06;;;;;;;0.30;0.30;;;;;;;23.49;40.20;99562.78;5011621;28;20193;-74
2021/05/09 10:33:38;;;;;;;0.37;0.37;;;;;;;23.51;41.04;99557.56;5011538;28;20196;-71
2021/05/09 10:36:05;;;;;;;0.23;0.23;;;;;;;23.29;40.52;99551.53;5011160;28;20176;-72
2021/05/09 10:38:50;;;;;;;0.43;0.43;;;;;;;23.25;42.39;99552.78;5009944;28;20198;-71
2021/05/09 10:41:16;;;;;;;0.47;0.47;;;;;;;23.55;41.29;99554.72;5010685;28;20274;-72
2021/05/09 10:43:41;;;;;;;0.30;0.30;;;;;;;23.71;42.19;99552.91;5010775;28;20275;-73
2021/05/09 10:46:08;;;;;;;1.03;0.63;;;;;;;23.88;41.20;99553.84;5010693;28;20191;-74
2021/05/09 10:48:34;;;;;;;0.63;0.33;;;;;;;23.78;40.38;99554.03;5010932;28;20180;-74
2021/05/09 10:51:03;;;;;;;0.30;0.30;;;;;;;23.87;42.65;99549.50;5010393;28;20180;-73
2021/05/09 10:53:38;;;;;;;0.30;0.30;;;;;;;24.13;41.88;99533.88;5008623;28;20218;-74
2021/05/09 10:56:03;;;;;;;1.00;0.50;;;;;;;24.35;41.28;99539.13;5005867;28;20179;-73
2021/05/09 10:58:50;;;;;;;0.50;0.50;;;;;;;24.53;41.32;99534.00;5014424;28;20604;-74
2021/05/09 11:01:20;;;;;;;0.50;0.50;;;;;;;24.41;42.07;99526.22;5015010;28;20641;-76
2021/05/09 11:03:52;;;;;;;0.33;0.33;;;;;;;24.59;41.84;99516.31;4995302;28;20181;-75
2021/05/09 11:06:45;;;;;;;0.60;0.60;;;;;;;24.65;42.37;99516.59;4995003;28;20177;-73
2021/05/09 11:09:11;;;;;;;0.60;0.60;;;;;;;24.73;41.13;99518.00;4995572;28;20257;-74
2021/05/09 11:11:37;;;;;;;1.80;1.63;;;;;;;24.70;42.40;99513.28;4995733;28;20184;-75
2021/05/09 11:14:07;;;;;;;13.67;10.47;;;;;;;24.69;41.64;99508.13;4995080;28;20178;-74
2021/05/09 11:16:41;;;;;;;1.83;1.73;;;;;;;24.54;41.95;99511.22;4994950;28;20261;-75
2021/05/09 11:19:13;;;;;;;0.50;0.40;;;;;;;24.84;41.36;99498.22;4996022;28;20176;-75
2021/05/09 11:21:51;;;;;;;1.20;1.10;;;;;;;24.97;43.17;99487.97;5004886;28;20251;-74
2021/05/09 11:24:26;;;;;;;0.57;0.57;;;;;;;24.74;43.28;99479.72;5015271;28;20215;-75
2021/05/09 11:26:57;;;;;;;1.07;0.90;;;;;;;25.14;43.64;99472.84;5015190;28;20521;-75
2021/05/09 11:29:24;;;;;;;6.40;5.80;;;;;;;24.77;40.78;99473.25;5014590;28;20177;-76
2021/05/09 11:32:05;;;;;;;1.90;1.80;;;;;;;25.01;40.97;99469.13;5014839;28;20422;-74
2021/05/09 11:34:30;;;;;;;0.70;0.70;;;;;;;25.43;41.01;99472.97;5014305;28;20204;-74